createdAt,value
2017-03-18T00:10:10.433Z,999.1
2017-03-18T00:20:24.721Z,998.5
2017-03-18T00:30:38.063Z,998
2017-03-18T00:40:52.786Z,997.7
2017-03-18T00:51:06.216Z,997.5
2017-03-18T01:01:19.464Z,997
2017-03-18T01:11:33.785Z,996.7
2017-03-18T01:21:48.047Z,996.5
2017-03-18T01:32:01.255Z,996.2
2017-03-18T01:42:14.757Z,996.2
2017-03-18T01:52:27.979Z,996
2017-03-18T02:02:41.295Z,995.6
2017-03-18T02:12:56.072Z,995.3
2017-03-18T02:23:09.626Z,995.1
2017-03-18T02:33:23.029Z,994.9
2017-03-18T02:43:36.073Z,994.8
2017-03-18T02:53:50.537Z,994.5
2017-03-18T03:04:05.450Z,994.3
2017-03-18T03:14:18.815Z,994.2
2017-03-18T03:24:33.038Z,994.2
2017-03-18T03:34:46.824Z,994
2017-03-18T03:45:00.625Z,993.9
2017-03-18T03:55:14.954Z,993.8
2017-03-18T04:05:28.127Z,993.7
2017-03-18T04:15:41.372Z,993.8
2017-03-18T04:25:56.298Z,993.5
2017-03-18T04:36:10.907Z,993.6
2017-03-18T04:46:24.077Z,993.6
2017-03-18T04:56:39.049Z,993.7
2017-03-18T05:06:53.927Z,993.7
2017-03-18T05:17:07.431Z,993.9
2017-03-18T05:27:21.766Z,994
2017-03-18T05:37:35.110Z,994.3
2017-03-18T05:47:49.219Z,994.4
2017-03-18T05:58:02.520Z,994.1
2017-03-18T06:08:16.342Z,994.2
2017-03-18T06:18:29.698Z,994.3
2017-03-18T06:28:44.715Z,994.5
2017-03-18T06:38:59.387Z,994.3
2017-03-18T06:49:13.754Z,994.4
2017-03-18T06:59:27.849Z,994.6
2017-03-18T07:09:41.516Z,994.8
2017-03-18T07:19:54.888Z,995
2017-03-18T07:30:09.407Z,995
2017-03-18T07:40:23.056Z,995.2
2017-03-18T07:50:37.131Z,995.3
2017-03-18T08:00:52.195Z,995.4
2017-03-18T08:11:07.146Z,995.5
2017-03-18T08:31:35.209Z,995.6
2017-03-18T08:41:49.506Z,995.8
2017-03-18T08:52:03.117Z,995.9
2017-03-18T09:02:16.254Z,996.1
2017-03-18T09:12:29.734Z,996.4
2017-03-18T09:22:43.894Z,996.4
2017-03-18T09:32:58.615Z,996.5
2017-03-18T09:43:13.774Z,996.5
2017-03-18T09:53:28.454Z,996.8
2017-03-18T10:03:41.983Z,997.2
2017-03-18T10:13:55.189Z,997.5
2017-03-18T10:24:09.910Z,997.6
2017-03-18T10:34:24.149Z,997.5
2017-03-18T10:44:39.014Z,997.7
2017-03-18T10:54:53.013Z,997.8
2017-03-18T11:05:06.344Z,997.9
2017-03-18T11:15:21.222Z,997.9
2017-03-18T11:25:35.570Z,997.7
2017-03-18T11:35:49.650Z,998.1
2017-03-18T11:46:03.450Z,998.4
2017-03-18T11:56:17.016Z,998.3
2017-03-18T12:06:32.145Z,998.3
2017-03-18T12:16:45.834Z,998.6
2017-03-18T12:26:59.311Z,998.9
2017-03-18T12:37:12.890Z,998.4
2017-03-18T12:47:28.195Z,998.5
2017-03-18T12:57:42.914Z,998.7
2017-03-18T13:07:56.804Z,999.1
2017-03-18T13:18:10.275Z,998.9
2017-03-18T13:28:24.165Z,998.7
2017-03-18T13:38:39.236Z,998.9
2017-03-18T13:48:53.550Z,999.1
2017-03-18T13:59:07.510Z,999.1
2017-03-18T14:09:22.290Z,999.4
2017-03-18T14:19:37.247Z,999.5
2017-03-18T14:29:50.682Z,999.8
2017-03-18T14:40:05.112Z,999.9
2017-03-18T14:50:19.287Z,1000
2017-03-18T15:00:32.626Z,999.9
2017-03-18T15:10:47.256Z,999.8
2017-03-18T15:21:01.319Z,999.8
2017-03-18T15:31:16.034Z,1000
2017-03-18T15:41:30.567Z,999.9
2017-03-18T15:51:44.712Z,999.7
2017-03-18T16:01:59.119Z,999.7
2017-03-18T16:12:13.969Z,999.8
2017-03-18T16:22:27.200Z,1000
2017-03-18T16:32:42.095Z,1000
2017-03-18T16:42:55.381Z,1000.2
2017-03-18T16:53:08.638Z,1000.5
2017-03-18T17:03:22.762Z,1000.3
2017-03-18T17:13:37.721Z,1000.3
2017-03-18T17:23:52.673Z,1000.4
2017-03-18T17:34:05.958Z,1000.4
2017-03-18T17:44:19.271Z,1000.5
2017-03-18T17:54:33.743Z,1000.6
2017-03-18T18:04:46.931Z,1000.8
2017-03-18T18:15:01.040Z,1000.9
2017-03-18T18:25:14.194Z,1001.4
2017-03-18T18:35:28.798Z,1001.5
2017-03-18T18:45:43.159Z,1001.6
2017-03-18T18:55:56.659Z,1001.6
2017-03-18T19:06:10.628Z,1002.1
2017-03-18T19:16:24.961Z,1002.1
2017-03-18T19:26:38.651Z,1002
2017-03-18T19:36:53.007Z,1002.1
2017-03-18T19:47:06.263Z,1002.3
2017-03-18T19:57:19.720Z,1002.3
2017-03-18T20:07:34.164Z,1002.4
2017-03-18T20:17:47.745Z,1002.4
2017-03-18T20:28:02.656Z,1002.3
2017-03-18T20:38:16.482Z,1002.6
2017-03-18T20:48:31.265Z,1002.3
2017-03-18T20:58:45.428Z,1002.4
2017-03-18T21:09:00.288Z,1002.2
2017-03-18T21:19:15.306Z,1002.1
2017-03-18T21:29:29.233Z,1002.1
2017-03-18T21:39:43.437Z,1002.3
2017-03-18T21:49:56.855Z,1002.4
2017-03-18T22:00:11.553Z,1002.4
2017-03-18T22:10:25.573Z,1002.5
2017-03-18T22:20:39.578Z,1002.7
2017-03-18T22:30:54.192Z,1002.7
2017-03-18T22:41:09.002Z,1002.8
2017-03-18T22:51:22.193Z,1002.6
2017-03-18T23:01:35.618Z,1002.4
2017-03-18T23:11:50.338Z,1002.3
2017-03-18T23:22:04.048Z,1002.4
2017-03-18T23:32:18.205Z,1002.4
2017-03-18T23:42:33.009Z,1002.4
2017-03-18T23:52:47.634Z,1002.6
